Terminal Aerodrome Forecast
Issued by NWS

Home | Current Version | Previous Version | Text Only | Print | Product List | Glossary On
Versions: 1 2 3 4 5 6 7 8 9 10 11 12 13 14 15 16 17 18 19 20 21 22 23 24
111
FTUS43 KGRB 241740
TAFCWA
TAF
KCWA 241740Z 2418/2518 01004KT P6SM OVC013
     FM242300 06005KT P6SM OVC009 PROB30 2504/2507 4SM -DZ BKN006
     FM250700 07005KT 3SM -DZSN BKN005
     FM250900 07005KT 1 1/2SM -SN OVC004
     FM251300 05007KT 3/4SM -SN BR OVC003=

USA.gov is the U.S. government's official web portal to all federal, state and local government web resources and services.